Peacehaven, United Kingdom
Current Conditions -  °F | °C
As of 8:20 AM on Thursday 27 Nov 2014 (Local Time) from EGKA Reporting Station
Haze Haze  
Wind Chill: 44°   Ceiling: 4800
Heat Index: 46°   Visibility: 2.5mi
Dew Point: 46°   Wind: 5mph
Humidity: 100%   Direction: 290°WNW
Pressure: 29.65"   Gusts: NA
Location:  50.79°N, 0.02°W
Report Text: EGKA 270820Z 29004KT 4000 BR SCT006 BKN048 08/08 Q1004
Loading
Personal Weather Stations






























Interactive Weather Map New forecast layout! Learn more

10-Day Weather Forecast

Advertisements
Track Severe Weather on mobile